createdAt,value
2023-01-15T00:00:00.417Z,-14.11
2023-01-15T00:02:32.380Z,-14.18
2023-01-15T00:05:03.726Z,-14.16
2023-01-15T00:07:33.086Z,-14.21
2023-01-15T00:10:01.945Z,-14.21
2023-01-15T00:12:32.118Z,-14.23
2023-01-15T00:15:00.866Z,-14.35
2023-01-15T00:17:29.933Z,-14.27
2023-01-15T00:19:58.762Z,-14.29
2023-01-15T00:22:27.985Z,-14.31
2023-01-15T00:25:15.431Z,-14.30
2023-01-15T00:27:46.555Z,-14.38
2023-01-15T00:30:19.106Z,-14.30
2023-01-15T00:32:48.089Z,-14.31
2023-01-15T00:35:24.500Z,-14.29
2023-01-15T00:37:53.924Z,-14.34
2023-01-15T00:40:23.663Z,-14.39
2023-01-15T00:42:53.539Z,-14.37
2023-01-15T00:45:24.128Z,-14.34
2023-01-15T00:47:53.141Z,-14.39
2023-01-15T00:50:22.869Z,-14.41
2023-01-15T00:52:51.840Z,-14.42
2023-01-15T00:55:22.472Z,-14.41
2023-01-15T00:57:51.327Z,-14.37
2023-01-15T01:00:21.126Z,-14.36
2023-01-15T01:02:50.209Z,-14.38
2023-01-15T01:05:19.026Z,-14.36
2023-01-15T01:07:47.918Z,-14.34
2023-01-15T01:10:18.094Z,-14.33
2023-01-15T01:12:49.130Z,-14.33
2023-01-15T01:15:21.131Z,-14.33
2023-01-15T01:17:50.283Z,-14.34
2023-01-15T01:20:19.787Z,-14.33
2023-01-15T01:22:50.565Z,-14.31
2023-01-15T01:25:19.882Z,-14.28
2023-01-15T01:27:49.346Z,-14.26
2023-01-15T01:30:18.441Z,-14.24
2023-01-15T01:32:47.725Z,-14.21
2023-01-15T01:35:16.718Z,-14.16
2023-01-15T01:37:50.781Z,-14.14
2023-01-15T01:40:20.238Z,-14.13
2023-01-15T01:42:49.096Z,-14.14
2023-01-15T01:45:25.801Z,-14.11
2023-01-15T01:48:03.291Z,-14.08
2023-01-15T01:50:34.992Z,-14.06
2023-01-15T01:53:22.095Z,-14.04
2023-01-15T01:55:52.877Z,-14.00
2023-01-15T01:58:25.264Z,-13.98
2023-01-15T02:00:55.824Z,-13.98
2023-01-15T02:03:32.195Z,-13.94
2023-01-15T02:06:05.573Z,-13.88
2023-01-15T02:08:36.138Z,-13.88
2023-01-15T02:11:05.090Z,-13.79
2023-01-15T02:13:41.428Z,-13.69
2023-01-15T02:16:35.492Z,-13.60
2023-01-15T02:19:13.400Z,-13.52
2023-01-15T02:21:54.743Z,-13.48
2023-01-15T02:24:40.187Z,-13.55
2023-01-15T02:27:22.134Z,-13.42
2023-01-15T02:30:01.849Z,-13.39
2023-01-15T02:32:52.722Z,-13.36
2023-01-15T02:35:30.111Z,-13.32
2023-01-15T02:38:03.519Z,-13.25
2023-01-15T02:40:34.334Z,-13.19
2023-01-15T02:43:03.846Z,-13.15
2023-01-15T02:45:35.917Z,-13.09
2023-01-15T02:48:14.857Z,-13.10
2023-01-15T02:50:49.838Z,-13.03
2023-01-15T02:53:25.917Z,-13.00
2023-01-15T02:56:00.763Z,-12.95
2023-01-15T02:58:38.450Z,-12.87
2023-01-15T03:01:15.619Z,-12.84
2023-01-15T03:04:01.847Z,-12.79
2023-01-15T03:06:47.049Z,-12.76
2023-01-15T03:09:17.216Z,-12.69
2023-01-15T03:11:52.393Z,-12.64
2023-01-15T03:14:27.434Z,-12.58
2023-01-15T03:17:03.696Z,-12.56
2023-01-15T03:19:39.566Z,-12.50
2023-01-15T03:22:20.298Z,-12.47
2023-01-15T03:25:01.421Z,-12.43
2023-01-15T03:27:33.990Z,-12.41
2023-01-15T03:30:08.900Z,-12.37
2023-01-15T03:32:39.099Z,-12.33
2023-01-15T03:35:29.590Z,-12.28
2023-01-15T03:37:58.437Z,-12.28
2023-01-15T03:40:27.445Z,-12.27
2023-01-15T03:43:20.501Z,-12.26
2023-01-15T03:45:55.456Z,-12.18
2023-01-15T03:48:24.499Z,-12.16
2023-01-15T03:51:40.221Z,-12.13
2023-01-15T03:54:15.729Z,-12.09
2023-01-15T03:56:56.441Z,-12.03
2023-01-15T03:59:46.741Z,-12.02
2023-01-15T04:02:19.993Z,-11.98
2023-01-15T04:04:53.207Z,-12.08
2023-01-15T04:07:25.141Z,-11.85
2023-01-15T04:09:54.384Z,-11.84
2023-01-15T04:12:23.628Z,-11.92
2023-01-15T04:14:53.914Z,-11.74
2023-01-15T04:17:24.209Z,-11.68
2023-01-15T04:19:53.171Z,-11.63
2023-01-15T04:22:22.153Z,-11.57
2023-01-15T04:24:51.124Z,-11.51
2023-01-15T04:27:20.007Z,-11.46
2023-01-15T04:29:49.042Z,-11.48
2023-01-15T04:32:17.944Z,-11.40
2023-01-15T04:34:46.809Z,-11.34
2023-01-15T04:37:16.911Z,-11.40
2023-01-15T04:39:47.446Z,-11.38
2023-01-15T04:42:34.778Z,-11.41
2023-01-15T04:45:03.722Z,-11.40
2023-01-15T04:47:32.830Z,-11.40
2023-01-15T04:50:01.792Z,-11.38
2023-01-15T04:52:32.164Z,-11.41
2023-01-15T04:55:01.039Z,-11.38
2023-01-15T04:57:31.964Z,-11.33
2023-01-15T05:00:00.851Z,-11.26
2023-01-15T05:02:33.562Z,-11.11
2023-01-15T05:05:02.740Z,-11.09
2023-01-15T05:07:31.751Z,-11.13
2023-01-15T05:10:01.080Z,-11.17
2023-01-15T05:12:31.628Z,-11.18
2023-01-15T05:15:00.375Z,-11.19
2023-01-15T05:17:29.253Z,-11.20
2023-01-15T05:19:58.202Z,-11.24
2023-01-15T05:22:27.104Z,-11.24
2023-01-15T05:24:55.963Z,-11.25
2023-01-15T05:27:24.816Z,-11.20
2023-01-15T05:29:53.700Z,-11.16
2023-01-15T05:32:22.703Z,-11.16
2023-01-15T05:34:51.544Z,-11.12
2023-01-15T05:37:20.473Z,-11.09
2023-01-15T05:39:49.479Z,-11.13
2023-01-15T05:42:18.290Z,-11.17
2023-01-15T05:44:47.158Z,-11.14
2023-01-15T05:47:15.998Z,-11.09
2023-01-15T05:49:44.859Z,-11.08
2023-01-15T05:52:13.718Z,-11.05
2023-01-15T05:54:42.593Z,-11.08
2023-01-15T05:57:13.915Z,-11.12
2023-01-15T05:59:42.835Z,-11.18
2023-01-15T06:02:12.472Z,-11.15
2023-01-15T06:04:41.585Z,-11.13
2023-01-15T06:07:10.491Z,-11.14
2023-01-15T06:09:39.381Z,-11.15
2023-01-15T06:12:08.388Z,-11.16
2023-01-15T06:14:37.425Z,-11.13
2023-01-15T06:17:06.269Z,-11.15
2023-01-15T06:19:35.086Z,-11.22
2023-01-15T06:22:04.396Z,-11.21
2023-01-15T06:24:33.279Z,-11.20
2023-01-15T06:27:02.190Z,-11.20
2023-01-15T06:29:31.805Z,-11.20
2023-01-15T06:32:00.700Z,-11.20
2023-01-15T06:34:29.561Z,-11.22
2023-01-15T06:36:58.606Z,-11.27
2023-01-15T06:39:27.532Z,-11.26
2023-01-15T06:42:14.787Z,-11.30
2023-01-15T06:45:02.283Z,-11.31
2023-01-15T06:47:32.833Z,-11.32
2023-01-15T06:50:01.655Z,-11.36
2023-01-15T06:52:32.227Z,-11.41
2023-01-15T06:55:01.216Z,-11.49
2023-01-15T06:57:32.170Z,-11.51
2023-01-15T07:00:01.185Z,-11.50
2023-01-15T07:02:31.313Z,-11.55
2023-01-15T07:05:00.425Z,-11.57
2023-01-15T07:07:30.586Z,-11.57
2023-01-15T07:09:59.487Z,-11.57
2023-01-15T07:12:28.461Z,-11.64
2023-01-15T07:14:57.249Z,-11.67
2023-01-15T07:17:26.111Z,-11.67
2023-01-15T07:19:55.017Z,-11.61
2023-01-15T07:22:24.083Z,-11.58
2023-01-15T07:24:53.375Z,-11.61
2023-01-15T07:27:22.442Z,-11.66
2023-01-15T07:29:52.702Z,-11.64
2023-01-15T07:32:21.643Z,-11.64
2023-01-15T07:34:50.491Z,-11.68
2023-01-15T07:37:19.559Z,-11.66
2023-01-15T07:39:48.403Z,-11.71
2023-01-15T07:42:35.973Z,-11.75
2023-01-15T07:45:23.361Z,-11.77
2023-01-15T07:48:10.740Z,-11.78
2023-01-15T07:50:39.816Z,-11.85
2023-01-15T07:53:08.694Z,-11.86
2023-01-15T07:55:37.677Z,-11.92
2023-01-15T07:58:06.674Z,-11.96
2023-01-15T08:00:36.347Z,-12.05
2023-01-15T08:03:07.109Z,-12.06
2023-01-15T08:05:36.157Z,-12.09
2023-01-15T08:08:05.088Z,-12.20
2023-01-15T08:10:53.838Z,-12.27
2023-01-15T08:13:41.135Z,-12.28
2023-01-15T08:16:11.874Z,-12.37
2023-01-15T08:18:40.792Z,-12.45
2023-01-15T08:21:16.131Z,-12.49
2023-01-15T08:23:46.775Z,-12.55
2023-01-15T08:26:15.600Z,-12.54
2023-01-15T08:28:44.471Z,-12.63
2023-01-15T08:31:13.538Z,-12.69
2023-01-15T08:33:42.320Z,-12.75
2023-01-15T08:36:11.708Z,-12.80
2023-01-15T08:38:40.542Z,-12.86
2023-01-15T08:41:09.758Z,-12.85
2023-01-15T08:43:38.688Z,-12.89
2023-01-15T08:46:07.995Z,-12.87
2023-01-15T08:48:36.906Z,-12.86
2023-01-15T08:51:07.363Z,-12.89
2023-01-15T08:53:37.149Z,-12.91
2023-01-15T08:56:12.750Z,-12.88
2023-01-15T08:58:41.620Z,-12.89
2023-01-15T09:01:16.751Z,-12.92
2023-01-15T09:03:45.980Z,-12.88
2023-01-15T09:06:15.327Z,-12.91
2023-01-15T09:08:44.256Z,-12.92
2023-01-15T09:11:13.819Z,-12.96
2023-01-15T09:13:44.392Z,-12.93
2023-01-15T09:16:13.468Z,-12.96
2023-01-15T09:18:42.355Z,-12.96
2023-01-15T09:21:11.708Z,-13.00
2023-01-15T09:23:40.690Z,-12.97
2023-01-15T09:26:33.464Z,-13.02
2023-01-15T09:29:03.377Z,-13.00
2023-01-15T09:31:32.729Z,-13.06
2023-01-15T09:34:01.711Z,-13.11
2023-01-15T09:36:33.449Z,-13.10
2023-01-15T09:39:03.953Z,-13.13
2023-01-15T09:42:08.875Z,-13.11
2023-01-15T09:44:49.741Z,-13.12
2023-01-15T09:47:31.639Z,-13.13
2023-01-15T09:50:19.004Z,-13.13
2023-01-15T09:53:02.712Z,-13.16
2023-01-15T09:55:35.015Z,-13.16
2023-01-15T09:58:07.194Z,-13.20
2023-01-15T10:00:44.248Z,-13.27
2023-01-15T10:03:35.463Z,-13.21
2023-01-15T10:06:25.461Z,-13.21
2023-01-15T10:09:15.861Z,-13.20
2023-01-15T10:12:11.830Z,-13.18
2023-01-15T10:15:11.836Z,-13.18
2023-01-15T10:17:48.419Z,-13.21
2023-01-15T10:20:42.167Z,-13.22
2023-01-15T10:23:26.572Z,-13.27
2023-01-15T10:26:33.480Z,-13.26
2023-01-15T10:29:29.272Z,-13.43
2023-01-15T10:32:19.878Z,-13.28
2023-01-15T10:35:30.091Z,-13.28
2023-01-15T10:38:34.313Z,-13.32
2023-01-15T10:41:03.080Z,-13.31
2023-01-15T10:43:50.447Z,-13.31
2023-01-15T10:46:23.465Z,-13.43
2023-01-15T10:49:00.121Z,-13.33
2023-01-15T10:51:35.678Z,-13.25
2023-01-15T10:54:13.747Z,-13.29
2023-01-15T10:56:46.637Z,-13.33
2023-01-15T10:59:31.895Z,-13.31
2023-01-15T11:02:05.319Z,-13.34
2023-01-15T11:04:34.678Z,-13.37
2023-01-15T11:07:04.087Z,-13.35
2023-01-15T11:09:35.324Z,-13.36
2023-01-15T11:12:18.610Z,-13.31
2023-01-15T11:15:06.307Z,-13.30
2023-01-15T11:18:01.786Z,-13.30
2023-01-15T11:20:44.732Z,-13.31
2023-01-15T11:23:16.026Z,-13.31
2023-01-15T11:26:01.195Z,-13.35
2023-01-15T11:28:42.088Z,-13.34
2023-01-15T11:31:13.893Z,-13.39
2023-01-15T11:34:04.296Z,-13.36
2023-01-15T11:36:34.661Z,-13.34
2023-01-15T11:39:03.566Z,-13.42
2023-01-15T11:41:54.929Z,-13.43
2023-01-15T11:44:43.287Z,-13.40
2023-01-15T11:47:33.027Z,-13.44
2023-01-15T11:50:20.473Z,-13.45
2023-01-15T11:52:56.221Z,-13.45
2023-01-15T11:55:28.556Z,-13.50
2023-01-15T11:57:59.369Z,-13.48
2023-01-15T12:00:38.720Z,-13.47
2023-01-15T12:03:16.086Z,-13.45
2023-01-15T12:06:06.563Z,-13.46
2023-01-15T12:09:07.667Z,-13.48
2023-01-15T12:12:03.209Z,-13.54
2023-01-15T12:15:09.284Z,-13.50
2023-01-15T12:18:15.560Z,-13.51
2023-01-15T12:20:53.344Z,-13.51
2023-01-15T12:23:34.230Z,-13.52
2023-01-15T12:26:56.943Z,-13.51
2023-01-15T12:29:32.417Z,-13.51
2023-01-15T12:32:06.208Z,-13.53
2023-01-15T12:34:55.276Z,-13.56
2023-01-15T12:37:43.670Z,-13.57
2023-01-15T12:40:15.711Z,-13.59
2023-01-15T12:43:05.633Z,-13.63
2023-01-15T12:45:58.111Z,-13.80
2023-01-15T12:48:46.412Z,-13.72
2023-01-15T12:51:24.512Z,-13.80
2023-01-15T12:54:01.343Z,-13.75
2023-01-15T12:56:44.594Z,-13.75
2023-01-15T12:59:34.675Z,-13.78
2023-01-15T13:02:31.131Z,-13.80
2023-01-15T13:05:16.957Z,-13.87
2023-01-15T13:08:11.437Z,-13.97
2023-01-15T13:10:42.264Z,-14.05
2023-01-15T13:13:33.626Z,-13.98
2023-01-15T13:16:24.971Z,-13.97
2023-01-15T13:19:19.465Z,-13.99
2023-01-15T13:21:55.122Z,-13.97
2023-01-15T13:24:42.085Z,-13.93
2023-01-15T13:27:49.255Z,-13.93
2023-01-15T13:30:54.925Z,-13.86
2023-01-15T13:33:37.282Z,-13.85
2023-01-15T13:36:12.080Z,-13.82
2023-01-15T13:38:46.084Z,-13.86
2023-01-15T13:41:44.665Z,-13.89
2023-01-15T13:44:29.934Z,-13.86
2023-01-15T13:47:11.982Z,-13.92
2023-01-15T13:49:47.951Z,-13.92
2023-01-15T13:52:28.579Z,-13.91
2023-01-15T13:55:10.922Z,-13.90
2023-01-15T13:57:41.932Z,-13.89
2023-01-15T14:00:39.534Z,-13.88
2023-01-15T14:03:38.443Z,-13.88
2023-01-15T14:06:11.020Z,-13.90
2023-01-15T14:08:44.011Z,-13.95
2023-01-15T14:11:35.353Z,-14.04
2023-01-15T14:14:31.982Z,-14.09
2023-01-15T14:17:36.668Z,-14.16
2023-01-15T14:20:26.616Z,-14.24
2023-01-15T14:23:23.692Z,-14.29
2023-01-15T14:25:53.037Z,-14.31
2023-01-15T14:28:59.920Z,-14.33
2023-01-15T14:32:00.641Z,-14.33
2023-01-15T14:34:36.334Z,-14.33
2023-01-15T14:37:22.984Z,-14.39
2023-01-15T14:39:53.805Z,-14.37
2023-01-15T14:42:41.585Z,-14.39
2023-01-15T14:45:13.790Z,-14.39
2023-01-15T14:47:48.876Z,-14.42
2023-01-15T14:50:33.952Z,-14.40
2023-01-15T14:53:12.296Z,-14.44
2023-01-15T14:55:47.050Z,-14.50
2023-01-15T14:58:40.848Z,-14.59
2023-01-15T15:01:22.994Z,-14.65
2023-01-15T15:03:59.808Z,-14.68
2023-01-15T15:06:28.788Z,-14.69
2023-01-15T15:09:05.446Z,-14.75
2023-01-15T15:12:06.022Z,-14.70
2023-01-15T15:14:40.369Z,-14.64
2023-01-15T15:17:21.698Z,-14.61
2023-01-15T15:19:58.074Z,-14.58
2023-01-15T15:22:30.293Z,-14.55
2023-01-15T15:25:02.190Z,-14.62
2023-01-15T15:27:32.256Z,-14.63
2023-01-15T15:30:08.679Z,-14.67
2023-01-15T15:32:41.120Z,-14.69
2023-01-15T15:35:44.921Z,-14.71
2023-01-15T15:38:20.647Z,-14.70
2023-01-15T15:41:15.638Z,-14.65
2023-01-15T15:44:16.095Z,-14.66
2023-01-15T15:47:09.411Z,-14.71
2023-01-15T15:49:42.289Z,-14.69
2023-01-15T15:52:24.584Z,-14.68
2023-01-15T15:55:01.429Z,-14.68
2023-01-15T15:57:35.262Z,-14.68
2023-01-15T16:00:05.926Z,-14.67
2023-01-15T16:02:42.173Z,-14.72
2023-01-15T16:05:20.279Z,-14.68
2023-01-15T16:07:49.237Z,-14.73
2023-01-15T16:10:32.308Z,-14.71
2023-01-15T16:13:05.206Z,-14.70
2023-01-15T16:15:39.608Z,-14.69
2023-01-15T16:18:21.153Z,-14.66
2023-01-15T16:20:50.289Z,-14.67
2023-01-15T16:23:28.001Z,-14.64
2023-01-15T16:26:02.514Z,-14.62
2023-01-15T16:28:40.985Z,-14.66
2023-01-15T16:31:11.117Z,-14.61
2023-01-15T16:33:40.370Z,-14.62
2023-01-15T16:36:09.729Z,-14.60
2023-01-15T16:38:42.236Z,-14.63
2023-01-15T16:41:25.874Z,-14.62
2023-01-15T16:44:00.830Z,-14.58
2023-01-15T16:46:36.800Z,-14.56
2023-01-15T16:49:24.106Z,-14.54
2023-01-15T16:51:54.539Z,-14.57
2023-01-15T16:54:32.545Z,-14.48
2023-01-15T16:57:03.452Z,-14.50
2023-01-15T16:59:32.683Z,-14.47
2023-01-15T17:02:22.896Z,-14.45
2023-01-15T17:04:52.617Z,-14.43
2023-01-15T17:07:32.378Z,-14.46
2023-01-15T17:10:02.487Z,-14.43
2023-01-15T17:12:44.191Z,-14.38
2023-01-15T17:15:19.623Z,-14.34
2023-01-15T17:17:50.937Z,-14.37
2023-01-15T17:20:24.734Z,-14.38
2023-01-15T17:22:54.111Z,-14.35
2023-01-15T17:25:27.896Z,-14.39
2023-01-15T17:27:57.739Z,-14.38
2023-01-15T17:30:33.808Z,-14.37
2023-01-15T17:33:05.173Z,-14.41
2023-01-15T17:35:38.766Z,-14.35
2023-01-15T17:38:12.350Z,-14.38
2023-01-15T17:40:41.456Z,-14.42
2023-01-15T17:43:14.438Z,-14.37
2023-01-15T17:45:43.671Z,-14.50
2023-01-15T17:48:14.055Z,-14.40
2023-01-15T17:50:42.951Z,-14.34
2023-01-15T17:53:12.066Z,-14.35
2023-01-15T17:55:59.181Z,-14.34
2023-01-15T17:58:46.408Z,-14.38
2023-01-15T18:01:41.266Z,-14.33
2023-01-15T18:04:43.167Z,-14.33
2023-01-15T18:07:13.112Z,-14.38
2023-01-15T18:09:42.725Z,-14.37
2023-01-15T18:12:11.539Z,-14.37
2023-01-15T18:14:40.653Z,-14.40
2023-01-15T18:17:09.483Z,-14.32
2023-01-15T18:19:38.532Z,-14.31
2023-01-15T18:22:07.372Z,-14.33
2023-01-15T18:24:36.167Z,-14.35
2023-01-15T18:27:05.079Z,-14.31
2023-01-15T18:29:36.680Z,-14.31
2023-01-15T18:32:05.641Z,-14.31
2023-01-15T18:34:34.491Z,-14.31
2023-01-15T18:37:03.465Z,-14.28
2023-01-15T18:39:32.364Z,-14.28
2023-01-15T18:42:01.214Z,-14.29
2023-01-15T18:44:48.760Z,-14.27
2023-01-15T18:47:18.220Z,-14.27
2023-01-15T18:49:47.483Z,-14.28
2023-01-15T18:52:35.269Z,-14.29
2023-01-15T18:55:04.321Z,-14.36
2023-01-15T18:57:35.205Z,-14.37
2023-01-15T19:00:05.691Z,-14.45
2023-01-15T19:02:36.111Z,-14.42
2023-01-15T19:05:05.627Z,-14.44
2023-01-15T19:07:34.986Z,-14.49
2023-01-15T19:10:04.022Z,-14.53
2023-01-15T19:12:34.828Z,-14.53
2023-01-15T19:15:25.813Z,-14.55
2023-01-15T19:18:13.265Z,-14.65
2023-01-15T19:20:42.227Z,-14.59
2023-01-15T19:23:10.985Z,-14.60
2023-01-15T19:25:41.380Z,-14.58
2023-01-15T19:28:15.087Z,-14.62
2023-01-15T19:31:05.328Z,-14.65
2023-01-15T19:33:34.520Z,-14.68
2023-01-15T19:36:03.713Z,-14.71
2023-01-15T19:38:34.284Z,-14.76
2023-01-15T19:41:23.249Z,-14.76
2023-01-15T19:44:10.623Z,-14.71
2023-01-15T19:46:58.071Z,-14.74
2023-01-15T19:49:45.457Z,-14.76
2023-01-15T19:52:33.288Z,-14.76
2023-01-15T19:55:03.927Z,-14.78
2023-01-15T19:57:32.818Z,-14.77
2023-01-15T20:00:01.747Z,-14.80
2023-01-15T20:02:35.307Z,-14.79
2023-01-15T20:05:05.916Z,-14.80
2023-01-15T20:07:34.803Z,-14.86
2023-01-15T20:10:07.294Z,-14.78
2023-01-15T20:12:55.064Z,-14.78
2023-01-15T20:15:24.434Z,-14.77
2023-01-15T20:17:53.334Z,-14.78
2023-01-15T20:20:22.191Z,-14.75
2023-01-15T20:22:51.341Z,-14.74
2023-01-15T20:25:20.172Z,-14.74
2023-01-15T20:27:48.950Z,-14.75
2023-01-15T20:30:24.694Z,-14.76
2023-01-15T20:32:56.147Z,-14.74
2023-01-15T20:35:31.891Z,-14.77
2023-01-15T20:38:00.939Z,-14.76
2023-01-15T20:40:30.283Z,-14.76
2023-01-15T20:43:17.681Z,-14.78
2023-01-15T20:45:46.599Z,-14.84
2023-01-15T20:48:15.520Z,-14.85
2023-01-15T20:51:09.025Z,-14.84
2023-01-15T20:53:39.306Z,-14.90
2023-01-15T20:56:15.680Z,-14.88
2023-01-15T20:58:44.717Z,-14.93
2023-01-15T21:01:15.398Z,-14.96
2023-01-15T21:03:44.535Z,-15.02
2023-01-15T21:06:13.468Z,-15.01
2023-01-15T21:08:43.157Z,-15.02
2023-01-15T21:11:12.003Z,-15.04
2023-01-15T21:13:45.418Z,-15.07
2023-01-15T21:16:15.940Z,-15.04
2023-01-15T21:18:45.844Z,-15.11
2023-01-15T21:21:17.969Z,-15.13
2023-01-15T21:23:47.173Z,-15.15
2023-01-15T21:26:16.833Z,-15.16
2023-01-15T21:28:45.722Z,-15.22
2023-01-15T21:31:15.396Z,-15.18
2023-01-15T21:33:44.317Z,-15.22
2023-01-15T21:36:15.290Z,-15.26
2023-01-15T21:38:44.198Z,-15.28
2023-01-15T21:41:16.359Z,-15.31
2023-01-15T21:44:03.689Z,-15.33
2023-01-15T21:46:32.455Z,-15.42
2023-01-15T21:49:01.447Z,-15.47
2023-01-15T21:51:31.445Z,-15.44
2023-01-15T21:54:00.729Z,-15.41
2023-01-15T21:56:29.680Z,-15.48
2023-01-15T21:58:58.599Z,-15.53
2023-01-15T22:01:28.134Z,-15.59
2023-01-15T22:03:57.275Z,-15.60
2023-01-15T22:06:26.105Z,-15.65
2023-01-15T22:08:56.177Z,-15.69
2023-01-15T22:11:25.117Z,-15.67
2023-01-15T22:13:53.953Z,-15.72
2023-01-15T22:16:22.771Z,-15.73
2023-01-15T22:18:53.189Z,-15.79
2023-01-15T22:21:22.049Z,-15.86
2023-01-15T22:23:50.880Z,-15.90
2023-01-15T22:26:21.539Z,-15.94
2023-01-15T22:28:52.155Z,-16.01
2023-01-15T22:31:21.029Z,-16.13
2023-01-15T22:33:49.897Z,-16.14
2023-01-15T22:36:18.993Z,-16.21
2023-01-15T22:38:47.827Z,-16.21
2023-01-15T22:41:36.504Z,-16.25
2023-01-15T22:44:06.186Z,-16.25
2023-01-15T22:46:35.985Z,-16.25
2023-01-15T22:49:05.230Z,-16.27
2023-01-15T22:51:34.121Z,-16.24
2023-01-15T22:54:02.983Z,-16.29
2023-01-15T22:56:31.972Z,-16.27
2023-01-15T22:59:00.788Z,-16.28
2023-01-15T23:01:30.195Z,-16.33
2023-01-15T23:03:59.435Z,-16.31
2023-01-15T23:06:29.458Z,-16.31
2023-01-15T23:08:58.267Z,-16.30
2023-01-15T23:11:28.285Z,-16.30
2023-01-15T23:13:57.778Z,-16.30
2023-01-15T23:16:26.747Z,-16.31
2023-01-15T23:18:55.828Z,-16.29
2023-01-15T23:21:26.682Z,-16.29
2023-01-15T23:23:57.040Z,-16.25
2023-01-15T23:26:27.909Z,-16.31
2023-01-15T23:28:57.145Z,-16.27
2023-01-15T23:31:27.035Z,-16.29
2023-01-15T23:33:56.269Z,-16.32
2023-01-15T23:36:25.106Z,-16.47
2023-01-15T23:38:54.170Z,-16.37
2023-01-15T23:41:44.819Z,-16.37
2023-01-15T23:44:39.847Z,-16.39
2023-01-15T23:47:09.727Z,-16.39
2023-01-15T23:49:39.002Z,-16.44
2023-01-15T23:52:08.231Z,-16.41
2023-01-15T23:54:37.128Z,-16.42
2023-01-15T23:57:08.597Z,-16.44
2023-01-15T23:59:37.468Z,-16.42
